Weather observations for the past three days for
Skagway
Metric (Imperial)
Date Time (akdt) Wind (kph) Vis. (km) Weather Sky Cond. Temperature (ºC) Relative Humidity Wind Chill (°C) Heat Index (°C) Pressure Precipitation (cm)
Air Dwpt 6 hour altimeter (cm) sea level (mb) 1 hr 3 hr 6 hr
Max. Min.
06 11:53 SW 7 16.09 Overcast OVC037 10.6 9.4 92% 76.38 1018.3
06 10:53 Calm 16.09 Overcast OVC036 10 9.4 96% 76.38 1018.3
06 09:53 Calm 16.09 Overcast OVC036 10 9.4 11.1 8.9 96% 76.4 1018.6
06 08:53 Calm 16.09 Overcast OVC035 10.6 9.4 92% 76.43 1018.8
06 07:53 Calm 16.09 Overcast OVC035 10 9.4 96% 76.43 1018.9
06 06:53 Calm 16.09 Overcast OVC035 10 10 100% 76.43 1018.8
06 05:53 Calm 16.09 Overcast OVC035 9.4 9.4 100% 76.43 1018.9
06 04:53 Calm 16.09 Overcast OVC038 9.4 8.9 97% 76.43 1018.9
06 03:53 Calm 16.09 Overcast FEW029 OVC039 9.4 8.9 11.1 8.9 97% 76.43 1018.8
06 02:53 N 6 16.09 Mostly Cloudy BKN041 9.4 8.3 93% 76.43 1018.8
06 01:53 NE 6 16.09 Mostly Cloudy FEW032 BKN042 8.9 8.3 96% 76.43 1018.8
06 00:53 N 6 16.09 A Few Clouds FEW040 8.9 8.9 100% 76.43 1018.9
05 23:53 NE 6 16.09 Fair CLR 10 8.9 93% 76.43 1018.9
05 22:53 Calm 16.09 Fair CLR 10 9.4 96% 76.4 1018.7
05 21:53 Calm 16.09 Fair CLR 11.1 10 16.1 11.1 93% 76.38 1018.3
05 20:53 N 6 16.09 Fair CLR 11.7 9.4 86% 76.35 1018.0
05 19:53 W 6 16.09 Fair CLR 13.3 10 81% 76.35 1017.9
05 18:53 Calm 16.09 Fair CLR 13.9 9.4 74% 76.33 1017.5
05 17:53 SW 9 16.09 Fair CLR 15 9.4 69% 76.3 1017.4
05 16:53 W 11 16.09 Fair CLR 14.4 8.9 70% 76.28 1016.9
05 15:53 SW 15 G 35 16.09 Fair CLR 15 8.9 15 8.3 67% 76.3 1017.3
05 14:53 SW 24 G 37 16.09 Fair CLR 14.4 9.4 72% 76.3 1017.3
05 13:53 SW 30 16.09 Fair CLR 13.9 10 78% 76.33 1017.5
05 09:53 SW 6 16.09 Fair CLR 8.3 6.1 10.6 6.1 86% 76.43 1018.7
05 08:53 Calm 16.09 Fair CLR 8.9 6.1 83% 76.43 1018.9
05 07:53 Calm 16.09 Fair CLR 6.7 5.6 93% 76.45 1019.3
05 06:53 NE 6 16.09 Fair CLR 6.1 5.6 97% 76.45 1019.3
05 05:53 Calm 16.09 Fair CLR 6.1 5.6 97% 76.45 1019.4
05 04:53 NE 7 16.09 Fair CLR 6.7 5.6 93% 6 76.45 1019.1
05 03:53 Calm 16.09 Fair CLR 7.8 6.1 10.6 7.2 89% 76.45 1019.4
05 02:53 NE 7 16.09 Fair CLR 7.8 6.1 89% 7 76.45 1019.3
05 01:53 NE 7 16.09 Fair CLR 8.3 6.1 86% 7 76.45 1019.3
05 00:53 Calm 16.09 Fair CLR 8.9 6.7 86% 76.45 1019.2
04 23:53 NE 7 16.09 Fair CLR 8.9 6.7 86% 8 76.48 1019.5
04 22:53 Calm 16.09 Fair CLR 10 6.7 80% 76.45 1019.4
04 21:53 Calm 16.09 Fair CLR 10.6 6.7 18.9 10.6 77% 76.45 1019.2
04 20:53 Calm 16.09 Fair CLR 12.2 7.2 72% 76.43 1018.9
04 19:53 N 6 16.09 Fair CLR 13.9 7.2 64% 76.4 1018.5
04 18:53 N 7 16.09 Fair CLR 15.6 6.7 56% 76.35 1017.8
04 17:53 W 7 16.09 Fair CLR 18.3 6.1 45% 76.33 1017.6
04 16:53 W 7 16.09 Fair CLR 17.8 5 43% 76.35 1017.9
04 15:53 SW 9 16.09 Fair CLR 17.8 6.7 17.8 9.4 48% 76.35 1018.0
04 14:53 SW 7 16.09 Fair CLR 16.7 7.2 54% 76.4 1018.4
04 13:53 SW 6 16.09 Fair CLR 15.6 6.1 53% 76.43 1019.1
04 12:53 SW 7 16.09 Fair CLR 13.9 5 55% 76.48 1019.5
04 11:53 SW 7 16.09 Fair CLR 11.7 6.7 72% 76.48 1019.7
04 10:53 SW 11 14.48 Fair CLR 10 7.2 83% 9 76.5 1019.9
04 09:53 Calm 16.09 Fair CLR 10.6 7.2 11.7 7.2 80% 76.53 1020.2
04 07:53 Calm 16.09 Fair CLR 8.3 6.1 86% 76.58 1021.0
04 06:53 NE 7 16.09 Fair CLR 7.2 5.6 90% 6 76.58 1021.0
04 05:53 NE 7 16.09 Fair CLR 7.8 5.6 86% 7 76.58 1021.1
04 04:53 N 6 16.09 Fair CLR 7.2 5.6 90% 76.58 1021.0
04 03:53 NE 7 16.09 Fair CLR 8.3 5.6 11.7 7.8 83% 7 76.56 1020.8
04 02:53 NE 6 16.09 Fair CLR 8.9 5.6 80% 76.58 1020.8
04 01:53 NE 7 16.09 Fair CLR 8.9 6.1 83% 8 76.56 1020.7
04 00:53 NE 6 16.09 Fair CLR 8.9 6.1 83% 76.56 1020.8
03 23:53 N 6 16.09 Fair CLR 9.4 6.1 80% 76.58 1021.0
03 22:53 NE 7 16.09 Fair CLR 11.1 6.1 72% 76.58 1020.9
03 21:53 Calm 16.09 Fair CLR 11.1 6.7 20 11.1 75% 76.56 1020.6
03 20:53 Calm 16.09 Fair CLR 12.2 6.7 69% 76.56 1020.7
03 19:53 Calm 16.09 Fair CLR 13.9 7.2 64% 76.5 1020.1
03 18:53 Calm 12.87 Fair CLR 14.4 7.8 65% 76.45 1019.2
03 17:53 SW 6 16.09 Fair CLR 14.4 7.8 65% 76.45 1019.1
03 16:53 SW 6 16.09 Fair CLR 18.9 5 40% 76.45 1019.1
03 15:53 SW 7 16.09 Fair CLR 20.6 3.3 22.8 16.7 32% 76.43 1019.0
03 14:53 Calm 16.09 Fair CLR 22.8 1.7 25% 76.45 1019.3
03 13:53 Calm 16.09 Fair CLR 21.7 1.7 27% 76.45 1019.3
Date Time (akdt) Wind (kph) Vis. (km) Weather Sky Cond. Air Dwpt Max. Min. Relative Humidity Wind Chill (°C) Heat Index (°C) altimeter (cm) sea level (mb) 1 hr 3 hr 6 hr
6 hour
Temperature (ºC) Pressure Precipitation (cm)